NCAR-RAP Real-Time Weather Data

Output produced by METARs form (21 May 2019  11:32 UTC)
found at http://weather.rap.ucar.edu/surface/
 
RJOW 211000Z 25006KT CAVOK 18/08 Q1006
RJOW 210900Z 28008KT 9999 FEW030 SCT/// 20/10 Q1006
RJOW 210800Z 29009KT 9999 FEW030 BKN/// 20/10 Q1006
RJOW 210700Z 29011KT 9999 FEW030 SCT/// 20/10 Q1006
RJOW 210600Z 30010KT 9999 FEW035 SCT/// 20/11 Q1006
RJOW 210500Z 31010KT 9999 FEW030 BKN/// 20/11 Q1006
RJOW 210400Z 31009KT CAVOK 19/10 Q1006
RJOW 210300Z 31008KT 9999 FEW030 SCT/// 19/11 Q1007
RJOW 210200Z 31007KT 280V340 9999 FEW030 SCT/// 19/11 Q1007
RJOW 210100Z 31005KT 270V350 9999 FEW030 18/10 Q1007
RJOW 210000Z 29006KT 250V330 9999 FEW030 SCT040 18/11 Q1007
RJOW 202300Z 13003KT 050V170 9999 FEW030 SCT040 BKN/// 16/12 Q1007
RJOW 201000Z VRB01KT 9999 -SHRA FEW003 SCT040 BKN080 20/19 Q1003
RJOW 200900Z VRB01KT 9999 -SHRA FEW003 SCT040 BKN080 20/19 Q1002
RJOW 200827Z 11007KT 8000 SHRA FEW003 SCT008 FEW020CB BKN030 19/19 Q1002 RMK 1ST003 3ST008 1CB020 5CU030 A2961 CB 10KM E MOV NE
RJOW 200815Z 12007KT 8000 -SHRA FEW003 SCT008 FEW020CB BKN030 19/19 Q1002 RMK 1ST003 3ST008 1CB020 5CU030 A2961 CB 5KM E MOV NE
RJOW 200800Z VRB03KT 6000 -TSRA BR FEW003 SCT008 SCT020CB BKN030 19/19 Q1002
RJOW 200744Z 29008KT 260V320 3000 R11/0650VP2000U SHRA BR FEW003 SCT005 BKN008 BKN020CB 19/19 Q1002 RMK 1ST003 3ST005 5ST008 6CB020 A2961 CB OHD MOV NE
RJOW 200739Z 28009KT 1000 R11/0650V1500D +SHRA BR FEW003 SCT005 BKN008 BKN020CB 19/19 Q1002 RMK 1ST003 3ST005 5ST008 6CB020 A2961 CB OHD MOV NE RI++
RJOW 200700Z 29010KT 3000 R11/1000V1600D +SHRA BR FEW003 SCT020 FEW030CB BKN040 19/19 Q1002
RJOW 200639Z 30011KT 270V330 6000 R11/1200VP2000D -TSRA FEW003 SCT020 FEW030CB BKN040 20/19 Q1002 RMK 1ST003 3CU020 1CB030 5CU040 A2961 FBL TS 20KM SW MOV NE
RJOW 200600Z 16012KT 140V200 9999 VCSH FEW010 SCT030 BKN080 24/19 Q1001
RJOW 200500Z 17019KT 9999 VCSH FEW030 SCT040 BKN080 25/18 Q1002
RJOW 200400Z 16020KT 9999 FEW030 SCT040 BKN080 26/18 Q1003
RJOW 200300Z 17022G35KT 130V200 9999 FEW030 SCT040 BKN100 25/18 Q1003
RJOW 200200Z 16020G31KT 140V200 9999 FEW030 SCT040 BKN100 27/17 Q1003
RJOW 200100Z 17016G27KT 130V210 9999 FEW030 SCT045 BKN/// 26/16 Q1003
RJOW 200000Z 17015KT 9999 FEW030 SCT045 BKN/// 26/16 Q1003
RJOW 192300Z 17015KT 9999 FEW030 SCT045 BKN100 24/16 Q1004
RJOW 191000Z VRB02KT 9999 FEW030 SCT100 BKN120 20/19 Q1010
RJOW 190900Z VRB02KT 9999 -RA FEW030 SCT070 BKN100 21/19 Q1010
RJOW 190800Z 14003KT 120V200 9999 -RA FEW025 SCT060 BKN080 21/19 Q1010
RJOW 190700Z 17006KT 9999 -RA FEW020 SCT050 BKN080 22/18 Q1011
RJOW 190600Z 16008KT 9999 -RA FEW020 SCT060 BKN080 23/17 Q1011
RJOW 190500Z 17008KT 140V200 9999 -RA FEW030 SCT080 BKN100 25/15 Q1011
RJOW 190400Z 15010KT 110V180 9999 FEW025 SCT080 BKN120 26/14 Q1011
RJOW 190300Z 17013KT 9999 FEW025 SCT080 BKN140 26/15 Q1012
RJOW 190200Z 17012KT 9999 FEW025 SCT080 BKN150 26/14 Q1012
RJOW 190100Z 02004KT 330V060 9999 FEW025 BKN/// 24/15 Q1012
RJOW 190000Z 01006KT 9999 FEW025 SCT/// 23/15 Q1012